Bookmark and Share
Track history (hours):
 

Pride

Last reported at 2014-Apr-16 18:33 UTC. Time now 2014-Apr-17 12:45 UTC.
Position N 55°57' E 016°30'.

Length 88 m; draft 3.4 m.

Type: Ship. MMSI: 236166000.

NotesDate/timePositionNaut miles runAvg speedWind from/ knotsBaromVisibWave heightAir tempDewpointWater temp
2014-Apr-16 18:33N 55°57' E 016°30'1110.6
2014-Apr-16 17:33N 55°52' E 016°14'1610.5
2014-Apr-16 16:04N 55°45' E 015°49'610.7
2014-Apr-16 15:33N 55°42' E 015°41'2110.6
2014-Apr-16 13:32N 55°32' E 015°08'1010.4
2014-Apr-16 12:33N 55°27' E 014°52'1010.3
2014-Apr-16 11:33N 55°21' E 014°37'1110.5
2014-Apr-16 10:33N 55°13' E 014°25'1010.3
2014-Apr-16 09:33N 55°09' E 014°08'1010.1
2014-Apr-16 08:33N 55°10' E 013°50'1310.4
2014-Apr-16 07:16N 55°12' E 013°27'710.3
2014-Apr-16 06:33N 55°13' E 013°14'1010.4
2014-Apr-16 05:33N 55°14' E 012°56'1010.1
2014-Apr-16 04:33N 55°17' E 012°39'8 8.2
2014-Apr-16 03:33N 55°25' E 012°38'1010.0
2014-Apr-16 02:33N 55°29' E 012°21'6 5.3
2014-Apr-16 01:29N 55°27' E 012°12'0 0.0
2014-Apr-16 00:26N 55°27' E 012°12'0 0.0
2014-Apr-15 23:33N 55°27' E 012°12'0 0.0
2014-Apr-15 22:31N 55°27' E 012°12'0 0.0
2014-Apr-15 21:33N 55°27' E 012°12'0 0.0
2014-Apr-15 20:28N 55°27' E 012°12'0 0.0
2014-Apr-15 19:32N 55°27' E 012°12'0 0.0
2014-Apr-15 16:29N 55°27' E 012°12'0 0.0
2014-Apr-15 15:20N 55°27' E 012°12'2 0.2
2014-Apr-15 05:33N 55°28' E 012°15'17 8.7
2014-Apr-15 03:34N 55°36' E 012°42'1110.8
2014-Apr-15 02:34N 55°47' E 012°41'1010.5
2014-Apr-15 01:34N 55°57' E 012°37'10 9.5
2014-Apr-15 00:33N 56°07' E 012°31'1010.2
2014-Apr-14 23:34N 56°13' E 012°17'10 9.7
2014-Apr-14 22:34N 56°18' E 012°02'35 0.9
2014-Apr-13 07:09N 56°29' E 011°03'147 7.5
2014-Apr-12 11:32N 54°11' E 009°31'6 6.1
2014-Apr-12 10:33N 54°09' E 009°22'5 5.1
2014-Apr-12 09:33N 54°04' E 009°19'9 8.7
2014-Apr-12 08:33N 53°56' E 009°13'4 4.0
2014-Apr-12 07:33N 53°53' E 009°08'5 5.3
2014-Apr-12 06:33N 53°51' E 008°60'8 8.1
2014-Apr-12 05:33N 53°51' E 008°46'7 7.4
2014-Apr-12 04:33N 53°57' E 008°38'8 7.5
2014-Apr-12 03:33N 53°59' E 008°26'8 7.8
2014-Apr-12 02:33N 53°59' E 008°13'9 8.7
2014-Apr-12 01:33N 53°57' E 007°58'8 8.4
2014-Apr-12 00:33N 53°55' E 007°45'8 8.2
2014-Apr-11 23:33N 53°54' E 007°31'9 8.4
2014-Apr-11 22:32N 53°52' E 007°17'48 9.5
2014-Apr-11 17:32N 53°39' E 005°59'1010.1
2014-Apr-11 16:33N 53°36' E 005°43'1010.4
2014-Apr-11 15:33N 53°33' E 005°26'1110.6
2014-Apr-11 14:33N 53°29' E 005°09'1010.0
2014-Apr-11 13:33N 53°26' E 004°53'22 9.1
2014-Apr-11 11:11N 53°09' E 004°32'6 8.8
2014-Apr-11 10:32N 53°04' E 004°27'9 8.7
2014-Apr-11 09:27N 52°56' E 004°19'7 8.2
2014-Apr-11 08:33N 52°49' E 004°14'8 8.0
2014-Apr-11 07:33N 52°43' E 004°07'8 8.0
2014-Apr-11 06:33N 52°36' E 003°60'8 7.9
2014-Apr-11 05:33N 52°29' E 003°55'8 8.3
2014-Apr-11 04:33N 52°20' E 003°52'9 8.7
2014-Apr-11 03:33N 52°12' E 003°54'9 9.0
2014-Apr-11 02:33N 52°03' E 003°54'9 9.0
2014-Apr-11 01:33N 51°59' E 004°07'9 9.2
2014-Apr-11 00:33N 51°54' E 004°20'3 1.4
2014-Apr-10 22:18N 51°55' E 004°25'0 0.0
2014-Apr-10 21:23N 51°55' E 004°25'0 0.0
2014-Apr-10 18:10N 51°55' E 004°25'0 0.0
2014-Apr-10 15:07N 51°55' E 004°25'0 0.0
2014-Apr-10 11:23N 51°55' E 004°25'0 0.0
2014-Apr-10 10:30N 51°55' E 004°25'0 0.0
2014-Apr-10 03:14N 51°55' E 004°25'0 0.0
2014-Apr-10 02:27N 51°55' E 004°25'0 0.0
2014-Apr-10 01:13N 51°55' E 004°25'0 0.0
2014-Apr-10 00:19N 51°55' E 004°25'0 0.0
2014-Apr-09 23:30N 51°55' E 004°25'0 0.5
2014-Apr-09 22:33N 51°54' E 004°25'10 9.4
2014-Apr-09 21:29N 51°57' E 004°10'1010.2
2014-Apr-09 20:33N 51°60' E 003°54'9 8.8
2014-Apr-09 19:33N 52°02' E 003°41'1110.4
2014-Apr-09 18:31N 52°09' E 003°27'5410.9
2014-Apr-09 13:33N 52°38' E 002°13'1010.5
2014-Apr-09 12:33N 52°44' E 001°59'1010.0
2014-Apr-09 11:33N 52°50' E 001°45'9 9.2
2014-Apr-09 10:33N 52°55' E 001°33'9 9.0
2014-Apr-09 09:33N 52°59' E 001°19'39 9.4
2014-Apr-09 05:23N 53°24' E 000°29'8 9.9
2014-Apr-09 04:33N 53°30' E 000°19'10 9.8
2014-Apr-09 03:33N 53°34' E 000°05'1110.9
2014-Apr-09 02:32N 53°40' W 000°12'7 5.5
2014-Apr-09 01:20N 53°43' W 000°22'0 0.0
2014-Apr-09 00:33N 53°43' W 000°22'0 0.0
2014-Apr-08 23:24N 53°43' W 000°22'0 0.0
2014-Apr-08 22:29N 53°43' W 000°22'0 0.0
2014-Apr-08 21:24N 53°43' W 000°22'0 0.0
2014-Apr-08 20:26N 53°43' W 000°22'0 0.0
2014-Apr-08 19:19N 53°43' W 000°22'0 0.0
2014-Apr-08 17:33N 53°43' W 000°22'0 0.0
2014-Apr-08 16:27N 53°43' W 000°22'0 0.0
2014-Apr-08 15:24N 53°43' W 000°22'0 0.0
2014-Apr-08 14:24N 53°43' W 000°22'0 0.0
2014-Apr-08 13:28N 53°43' W 000°22'0 0.0
2014-Apr-08 12:28N 53°43' W 000°22'0 0.0
2014-Apr-08 11:30N 53°43' W 000°22'0 0.0
2014-Apr-08 10:30N 53°43' W 000°22'0 0.0
2014-Apr-08 09:28N 53°43' W 000°22'0 0.0
2014-Apr-08 08:33N 53°43' W 000°22'0 0.0
2014-Apr-08 07:32N 53°43' W 000°22'0 0.0
2014-Apr-08 06:22N 53°43' W 000°22'0 0.0
2014-Apr-08 05:22N 53°43' W 000°22'0 0.0
2014-Apr-08 04:33N 53°43' W 000°22'0 0.0
2014-Apr-08 03:30N 53°43' W 000°22'0 0.0
2014-Apr-08 02:29N 53°43' W 000°22'0 0.0
2014-Apr-08 01:27N 53°43' W 000°22'0 0.0
2014-Apr-08 00:30N 53°43' W 000°22'0 0.0
2014-Apr-07 23:33N 53°43' W 000°22'0 0.0
2014-Apr-07 22:23N 53°43' W 000°22'0 0.0
2014-Apr-07 21:29N 53°43' W 000°22'0 0.0
2014-Apr-07 20:33N 53°43' W 000°22'0 0.0
2014-Apr-07 19:24N 53°43' W 000°22'0 0.0
2014-Apr-07 17:29N 53°43' W 000°22'0 0.0
2014-Apr-07 16:33N 53°43' W 000°22'0 0.0
2014-Apr-07 15:20N 53°43' W 000°22'0 0.0
2014-Apr-07 14:32N 53°43' W 000°22'0 0.0
2014-Apr-07 13:29N 53°43' W 000°22'0 0.0
2014-Apr-07 12:33N 53°43' W 000°22'0 0.0
2014-Apr-07 11:24N 53°43' W 000°22'0 0.0
2014-Apr-07 10:25N 53°43' W 000°22'0 0.0
2014-Apr-07 09:33N 53°43' W 000°22'0 0.0
2014-Apr-07 08:27N 53°43' W 000°22'0 0.0
2014-Apr-07 07:30N 53°43' W 000°22'0 0.0
2014-Apr-07 06:10N 53°43' W 000°22'0 0.0
2014-Apr-07 05:21N 53°43' W 000°22'0 0.0
2014-Apr-07 04:17N 53°43' W 000°22'0 0.0
2014-Apr-07 03:13N 53°43' W 000°22'0 0.0
2014-Apr-07 02:31N 53°43' W 000°22'0 0.0
2014-Apr-07 01:31N 53°43' W 000°22'0 0.0
2014-Apr-07 00:30N 53°43' W 000°22'0 0.0
2014-Apr-06 23:30N 53°43' W 000°22'2 2.5
2014-Apr-06 22:32N 53°44' W 000°18'6 6.1
2014-Apr-06 21:33N 53°39' W 000°12'8 8.5
2014-Apr-06 20:33N 53°35' E 000°01'9 9.1
2014-Apr-06 19:33N 53°33' E 000°16'  

Dump ship's entire track history

sailing weather and tide predictions

Pride — ZDFD7 — position and weather